Darstellungsparameter: Aktuell verwendete Einstellungen:
Skalierung der Graphiken ... ?
xyx+y,   Skalierungsfaktor:      Skalierung: Modus: x, Faktor: 1
Darstellungszeitraum ... ?
Vom - - bis: - -   Zeitraum: 14.01.2011 - 16.01.2011
Min/Max/Avg-Anzeige ... ?
Zeige MMA aktuell
Zeige MMA Monat
Zeige MMA alles
Zeige --A aktuell
Zeige --A Monat
Zeige --A alles
Keine MMA-Anzeige
MMA:
Keine MMA-Graphiken
MMA-Basis: 14.01.2011 - 16.01.2011
Quicknavigation für Darstellung... ?
Tage:      1T, 2T, 3T, 5T -1T -2T -3T -5T +1T +2T +3T +5T
Wochen: 1W, 2W, 3W -1W -2W -3W +1W +2W +3W
Monate: 1M, 3M, 6M -1M -3M -6M +1M +3M +6M
Jahre:    1J, 3J, 5J, 10J -1J -3J -5J -10J +1J +3J +5J +10J
Nutze für die Darstellung ... ?
Originaldaten oder Mittelwerte auf ...
Stundenbasis Tagesbasis Wochenbasis
Monatsbasis Jahresbasis      Datenbasis: Original-Daten
Darstellen als:
Statistik (Auto) Statistik J:M      Darstellung:
Zur Graphik,    zurück zur Übersicht aller Sensoren.
 
Tabellarische Datenbersicht: ?
 
Sensor: Nr:Datum:Temp:Abs-Feuchte:Windchill:Wind:
Aussen-T/F 1 14-01-2011 00:02:02 12.7 C 8.24 g/m*3 12.7 C 0 km/h
2 14-01-2011 00:14:02 12.5 C 8.14 g/m*3 12.5 C 0 km/h
3 14-01-2011 00:26:01 12.4 C 8.09 g/m*3 12.4 C 0 km/h
4 14-01-2011 00:38:02 12.5 C 8.14 g/m*3 12.5 C 0 km/h
5 14-01-2011 00:50:01 12.7 C 8.13 g/m*3 12.7 C 0 km/h
6 14-01-2011 01:02:02 12.5 C 8.14 g/m*3 12.5 C 0 km/h
7 14-01-2011 01:14:02 12.4 C 8.09 g/m*3 12.4 C 0 km/h
8 14-01-2011 01:26:01 12.5 C 8.14 g/m*3 12.5 C 0 km/h
9 14-01-2011 01:38:02 12.6 C 8.08 g/m*3 12.6 C 0 km/h
10 14-01-2011 01:50:01 12.5 C 8.03 g/m*3 12.5 C 0 km/h
11 14-01-2011 02:02:02 12.4 C 7.98 g/m*3 12.4 C 0 km/h
12 14-01-2011 02:14:02 12.3 C 7.93 g/m*3 12.3 C 0 km/h
13 14-01-2011 02:26:01 12.3 C 7.93 g/m*3 12.3 C 0 km/h
14 14-01-2011 02:38:01 12.3 C 7.93 g/m*3 12.3 C 0 km/h
15 14-01-2011 02:50:01 12.4 C 7.98 g/m*3 12.4 C 0 km/h
16 14-01-2011 03:02:01 12.2 C 7.88 g/m*3 12.2 C 0 km/h
17 14-01-2011 03:14:01 12.4 C 7.98 g/m*3 12.4 C 0 km/h
18 14-01-2011 03:26:02 12.2 C 7.77 g/m*3 12.2 C 0 km/h
19 14-01-2011 03:38:01 12.2 C 7.77 g/m*3 12.2 C 0 km/h
20 14-01-2011 03:50:01 12.2 C 7.77 g/m*3 12.2 C 0 km/h
21 14-01-2011 04:02:02 12.2 C 7.77 g/m*3 12.2 C 0 km/h
22 14-01-2011 04:14:02 12.2 C 7.88 g/m*3 12.2 C 0 km/h
23 14-01-2011 04:26:01 12.4 C 7.87 g/m*3 12.4 C 0 km/h
24 14-01-2011 04:38:01 12.2 C 7.77 g/m*3 12.2 C 0 km/h
25 14-01-2011 04:50:01 12.2 C 7.77 g/m*3 12.2 C 0 km/h
Sensor: Nr:Datum:Temp:Abs-Feuchte:Windchill:Wind:
Aussen-T/F 26 14-01-2011 05:02:01 12.1 C 7.83 g/m*3 12.1 C 0 km/h
27 14-01-2011 05:14:01 12.1 C 7.83 g/m*3 12.1 C 0 km/h
28 14-01-2011 05:26:01 12.3 C 7.82 g/m*3 12.3 C 0 km/h
29 14-01-2011 05:38:01 12.5 C 7.81 g/m*3 12.5 C 0 km/h
30 14-01-2011 05:50:01 12.3 C 7.71 g/m*3 12.3 C 0 km/h
31 14-01-2011 06:02:01 12.4 C 7.65 g/m*3 12.4 C 0 km/h
32 14-01-2011 06:14:01 12.6 C 7.63 g/m*3 12.6 C 0 km/h
33 14-01-2011 06:26:02 12.5 C 7.59 g/m*3 12.5 C 0 km/h
34 14-01-2011 06:38:01 12.7 C 7.57 g/m*3 12.7 C 0 km/h
35 14-01-2011 06:50:02 12.6 C 7.63 g/m*3 12.6 C 0 km/h
36 14-01-2011 07:02:01 12.3 C 7.6 g/m*3 12.3 C 0 km/h
37 14-01-2011 07:14:01 12.3 C 7.49 g/m*3 12.3 C 0 km/h
38 14-01-2011 07:26:02 12.4 C 7.43 g/m*3 12.4 C 0 km/h
39 14-01-2011 07:38:01 12.2 C 7.12 g/m*3 12.2 C 0 km/h
40 14-01-2011 07:50:01 12.3 C 7.17 g/m*3 12.3 C 0 km/h
41 14-01-2011 08:02:01 12.1 C 7.08 g/m*3 12.1 C 0 km/h
42 14-01-2011 08:14:01 12.2 C 7.01 g/m*3 12.2 C 0 km/h
43 14-01-2011 08:26:02 11.7 C 7.01 g/m*3 11.7 C 0 km/h
44 14-01-2011 08:38:01 11.2 C 6.89 g/m*3 11.2 C 0 km/h
45 14-01-2011 08:50:02 11.1 C 6.95 g/m*3 11.1 C 0 km/h
46 14-01-2011 09:02:01 11.2 C 6.99 g/m*3 11.2 C 0 km/h
47 14-01-2011 09:14:01 11.4 C 6.77 g/m*3 11.4 C 0 km/h
48 14-01-2011 09:26:01 11.6 C 6.86 g/m*3 11.6 C 0 km/h
49 14-01-2011 09:38:01 11.6 C 6.76 g/m*3 11.6 C 0 km/h
50 14-01-2011 09:50:01 11.5 C 6.82 g/m*3 11.5 C 0 km/h
Sensor: Nr:Datum:Temp:Abs-Feuchte:Windchill:Wind:
Aussen-T/F 51 14-01-2011 10:02:01 11.8 C 6.84 g/m*3 11.8 C 0 km/h
52 14-01-2011 10:14:01 11.9 C 6.78 g/m*3 11.9 C 0 km/h
53 14-01-2011 10:26:01 11.9 C 6.78 g/m*3 11.9 C 0 km/h
54 14-01-2011 10:38:02 11.3 C 6.53 g/m*3 11.3 C 0 km/h
55 14-01-2011 10:50:01 11.8 C 6.63 g/m*3 11.8 C 0 km/h
56 14-01-2011 11:02:02 12 C 6.61 g/m*3 12 C 0 km/h
57 14-01-2011 11:14:02 11.9 C 6.67 g/m*3 11.9 C 0 km/h
58 14-01-2011 11:26:01 12 C 6.61 g/m*3 12 C 0 km/h
59 14-01-2011 11:38:02 12 C 6.61 g/m*3 12 C 0 km/h
60 14-01-2011 11:50:01 12.2 C 6.58 g/m*3 12.2 C 0 km/h
61 14-01-2011 12:02:01 12 C 6.5 g/m*3 12 C 0 km/h
62 14-01-2011 12:14:02 12.2 C 6.58 g/m*3 12.2 C 0 km/h
63 14-01-2011 12:26:01 12.3 C 6.52 g/m*3 12.3 C 0 km/h
64 14-01-2011 12:38:01 12.2 C 6.58 g/m*3 12.2 C 0 km/h
65 14-01-2011 12:50:01 12 C 6.5 g/m*3 12 C 0 km/h
66 14-01-2011 13:02:01 12 C 6.61 g/m*3 12 C 0 km/h
67 14-01-2011 13:14:01 12 C 6.71 g/m*3 12 C 0 km/h
68 14-01-2011 13:26:02 12 C 6.61 g/m*3 12 C 0 km/h
69 14-01-2011 13:38:01 12 C 6.61 g/m*3 12 C 0 km/h
70 14-01-2011 13:50:02 12 C 6.61 g/m*3 12 C 0 km/h
71 14-01-2011 14:02:01 11.8 C 6.74 g/m*3 11.8 C 0 km/h
72 14-01-2011 14:14:01 11.7 C 6.8 g/m*3 11.7 C 0 km/h
73 14-01-2011 14:26:02 11.6 C 6.86 g/m*3 11.6 C 0 km/h
74 14-01-2011 14:38:01 11.5 C 6.82 g/m*3 11.5 C 0 km/h
75 14-01-2011 14:50:02 11.6 C 6.86 g/m*3 11.6 C 0 km/h
Sensor: Nr:Datum:Temp:Abs-Feuchte:Windchill:Wind:
Aussen-T/F 76 14-01-2011 15:02:01 11.8 C 6.74 g/m*3 11.8 C 0 km/h
77 14-01-2011 15:14:01 12 C 6.61 g/m*3 12 C 0 km/h
78 14-01-2011 15:26:01 12.2 C 6.47 g/m*3 12.2 C 0 km/h
79 14-01-2011 15:38:02 12.4 C 6.45 g/m*3 12.4 C 0 km/h
80 14-01-2011 15:50:01 12.2 C 6.47 g/m*3 12.2 C 0 km/h
81 14-01-2011 16:02:02 12.2 C 6.37 g/m*3 12.2 C 0 km/h
82 14-01-2011 16:14:02 12.1 C 6.43 g/m*3 12.1 C 0 km/h
83 14-01-2011 16:26:01 12 C 6.39 g/m*3 12 C 0 km/h
84 14-01-2011 16:38:01 11.9 C 6.46 g/m*3 11.9 C 0 km/h
85 14-01-2011 16:50:01 11.6 C 6.34 g/m*3 11.6 C 0 km/h
86 14-01-2011 17:02:01 11.6 C 6.34 g/m*3 11.6 C 0 km/h
87 14-01-2011 17:14:01 11.6 C 6.44 g/m*3 11.6 C 0 km/h
88 14-01-2011 17:26:01 11.5 C 6.3 g/m*3 11.5 C 0 km/h
89 14-01-2011 17:38:01 11.5 C 6.3 g/m*3 11.5 C 0 km/h
90 14-01-2011 17:50:01 11.4 C 6.26 g/m*3 11.4 C 0 km/h
91 14-01-2011 18:02:01 11.2 C 6.28 g/m*3 11.2 C 0 km/h
92 14-01-2011 18:14:01 11 C 6.31 g/m*3 11 C 0 km/h
93 14-01-2011 18:26:02 11.3 C 6.32 g/m*3 11.3 C 0 km/h
94 14-01-2011 18:38:01 10.8 C 6.33 g/m*3 10.8 C 0 km/h
95 14-01-2011 18:50:02 10.9 C 6.37 g/m*3 10.9 C 0 km/h
96 14-01-2011 19:02:01 10.8 C 6.33 g/m*3 10.8 C 0 km/h
97 14-01-2011 19:14:01 10.7 C 6.29 g/m*3 10.7 C 0 km/h
98 14-01-2011 19:26:01 11 C 6.21 g/m*3 11 C 0 km/h
99 14-01-2011 19:38:01 11.3 C 6.22 g/m*3 11.3 C 0 km/h
100 14-01-2011 19:50:01 11.9 C 6.14 g/m*3 11.9 C 0 km/h
Sensor: Nr:Datum:Temp:Abs-Feuchte:Windchill:Wind:
Aussen-T/F 101 14-01-2011 20:02:01 11.9 C 6.04 g/m*3 11.9 C 0 km/h
102 14-01-2011 20:14:01 11.8 C 6.1 g/m*3 11.8 C 0 km/h
103 14-01-2011 20:26:01 11.8 C 6.1 g/m*3 11.8 C 0 km/h
104 14-01-2011 20:38:02 11.5 C 6.09 g/m*3 11.5 C 0 km/h
105 14-01-2011 20:50:01 11.4 C 6.06 g/m*3 11.4 C 0 km/h
106 14-01-2011 21:02:02 11.4 C 6.06 g/m*3 11.4 C 0 km/h
107 14-01-2011 21:14:02 11.4 C 5.95 g/m*3 11.4 C 0 km/h
108 14-01-2011 21:26:01 11.4 C 6.06 g/m*3 11.4 C 0 km/h
109 14-01-2011 21:38:01 11.4 C 5.95 g/m*3 11.4 C 0 km/h
110 14-01-2011 21:50:01 11.4 C 6.06 g/m*3 11.4 C 0 km/h
111 14-01-2011 22:04:03 11.2 C 6.08 g/m*3 11.2 C 0 km/h
112 14-01-2011 22:16:03 11.1 C 6.14 g/m*3 11.1 C 0 km/h
113 14-01-2011 22:28:03 11.1 C 6.25 g/m*3 11.1 C 0 km/h
114 14-01-2011 22:40:03 10.6 C 6.34 g/m*3 10.6 C 0 km/h
115 14-01-2011 22:52:03 10.1 C 6.43 g/m*3 10.1 C 0 km/h
116 14-01-2011 23:04:03 10 C 6.58 g/m*3 10 C 0 km/h
117 14-01-2011 23:16:03 9.5 C 6.74 g/m*3 9.5 C 0 km/h
118 14-01-2011 23:28:03 9.1 C 6.92 g/m*3 9.1 C 0 km/h
119 14-01-2011 23:40:03 9.1 C 6.92 g/m*3 9.1 C 0 km/h
120 14-01-2011 23:52:03 8.5 C 6.66 g/m*3 8.5 C 0 km/h
121 15-01-2011 00:04:03 8.3 C 6.74 g/m*3 8.3 C 0 km/h
122 15-01-2011 00:16:03 8 C 6.7 g/m*3 8 C 0 km/h
123 15-01-2011 00:28:03 8.5 C 6.74 g/m*3 8.5 C 0 km/h
124 15-01-2011 00:40:03 8.1 C 6.49 g/m*3 8.1 C 0 km/h
125 15-01-2011 00:52:03 8.2 C 6.53 g/m*3 8.2 C 0 km/h
Sensor: Nr:Datum:Temp:Abs-Feuchte:Windchill:Wind:
Aussen-T/F 126 15-01-2011 01:04:03 8.1 C 6.49 g/m*3 8.1 C 0 km/h
127 15-01-2011 01:16:03 8.3 C 6.49 g/m*3 8.3 C 0 km/h
128 15-01-2011 01:28:03 8.5 C 6.32 g/m*3 8.5 C 0 km/h
129 15-01-2011 01:40:03 8.2 C 6.36 g/m*3 8.2 C 0 km/h
130 15-01-2011 01:52:03 8 C 6.37 g/m*3 8 C 0 km/h
131 15-01-2011 02:04:04 8.4 C 6.45 g/m*3 8.4 C 0 km/h
132 15-01-2011 02:16:04 8.3 C 6.41 g/m*3 8.3 C 0 km/h
133 15-01-2011 02:28:04 8.1 C 6.32 g/m*3 8.1 C 0 km/h
134 15-01-2011 02:40:04 7.6 C 6.36 g/m*3 7.6 C 0 km/h
135 15-01-2011 02:52:04 7.8 C 6.61 g/m*3 7.8 C 0 km/h
136 15-01-2011 03:04:04 8 C 6.45 g/m*3 8 C 0 km/h
137 15-01-2011 03:16:04 8.1 C 6.41 g/m*3 8.1 C 0 km/h
138 15-01-2011 03:28:04 8.4 C 6.62 g/m*3 8.4 C 0 km/h
139 15-01-2011 03:40:04 8.1 C 6.41 g/m*3 8.1 C 0 km/h
140 15-01-2011 03:52:04 8 C 6.45 g/m*3 8 C 0 km/h
141 15-01-2011 04:04:04 7.8 C 6.45 g/m*3 7.8 C 0 km/h
142 15-01-2011 04:16:04 8 C 6.53 g/m*3 8 C 0 km/h
143 15-01-2011 04:28:04 8.2 C 6.36 g/m*3 8.2 C 0 km/h
144 15-01-2011 04:40:04 8.7 C 6.4 g/m*3 8.7 C 0 km/h
145 15-01-2011 04:52:04 8.4 C 6.28 g/m*3 8.4 C 0 km/h
146 15-01-2011 05:04:04 8.3 C 6.15 g/m*3 8.3 C 0 km/h
147 15-01-2011 05:16:04 8.1 C 6.07 g/m*3 8.1 C 0 km/h
148 15-01-2011 05:28:04 7.7 C 6.24 g/m*3 7.7 C 0 km/h
149 15-01-2011 05:40:04 8 C 6.12 g/m*3 8 C 0 km/h
150 15-01-2011 05:52:04 7.7 C 6.08 g/m*3 7.7 C 0 km/h
Sensor: Nr:Datum:Temp:Abs-Feuchte:Windchill:Wind:
Aussen-T/F 151 15-01-2011 06:04:05 7.5 C 6.24 g/m*3 7.5 C 0 km/h
152 15-01-2011 06:16:05 6.9 C 6.24 g/m*3 6.9 C 0 km/h
153 15-01-2011 06:28:05 7.3 C 6.24 g/m*3 7.3 C 0 km/h
154 15-01-2011 06:40:05 7.6 C 6.2 g/m*3 7.6 C 0 km/h
155 15-01-2011 06:52:05 7.9 C 6.16 g/m*3 7.9 C 0 km/h
156 15-01-2011 07:04:05 7.1 C 6.01 g/m*3 7.1 C 0 km/h
157 15-01-2011 07:16:05 7.3 C 6.24 g/m*3 7.3 C 0 km/h
158 15-01-2011 07:28:05 7 C 6.2 g/m*3 7 C 0 km/h
159 15-01-2011 07:40:05 7 C 6.12 g/m*3 7 C 0 km/h
160 15-01-2011 07:52:05 7 C 6.12 g/m*3 7 C 0 km/h
161 15-01-2011 08:04:02 7 C 6.12 g/m*3 7 C 0 km/h
162 15-01-2011 08:16:03 7.1 C 6.08 g/m*3 7.1 C 0 km/h
163 15-01-2011 08:28:03 8 C 6.28 g/m*3 8 C 0 km/h
164 15-01-2011 08:40:02 8 C 6.04 g/m*3 8 C 0 km/h
165 15-01-2011 08:52:03 8.3 C 6.15 g/m*3 8.3 C 0 km/h
166 15-01-2011 09:04:02 8.2 C 5.95 g/m*3 8.2 C 0 km/h
167 15-01-2011 09:16:02 7.9 C 5.91 g/m*3 7.9 C 0 km/h
168 15-01-2011 09:28:02 8.2 C 6.03 g/m*3 8.2 C 0 km/h
169 15-01-2011 09:40:02 8.5 C 5.98 g/m*3 8.5 C 0 km/h
170 15-01-2011 09:52:02 8.7 C 6.05 g/m*3 8.7 C 0 km/h
171 15-01-2011 10:04:01 9.1 C 5.94 g/m*3 9.1 C 0 km/h
172 15-01-2011 10:16:02 8.9 C 5.96 g/m*3 8.9 C 0 km/h
173 15-01-2011 10:28:02 9 C 5.91 g/m*3 9 C 0 km/h
174 15-01-2011 10:40:02 9.1 C 5.86 g/m*3 9.1 C 0 km/h
175 15-01-2011 10:52:02 9.2 C 5.89 g/m*3 9.2 C 0 km/h
Sensor: Nr:Datum:Temp:Abs-Feuchte:Windchill:Wind:
Aussen-T/F 176 15-01-2011 11:04:02 9.4 C 5.97 g/m*3 9.4 C 0 km/h
177 15-01-2011 11:16:02 9.5 C 6.01 g/m*3 9.5 C 0 km/h
178 15-01-2011 11:28:02 10.1 C 5.96 g/m*3 10.1 C 0 km/h
179 15-01-2011 11:40:02 10.1 C 5.77 g/m*3 10.1 C 0 km/h
180 15-01-2011 11:52:02 10.2 C 5.71 g/m*3 10.2 C 0 km/h
181 15-01-2011 12:04:02 10.2 C 5.8 g/m*3 10.2 C 0 km/h
182 15-01-2011 12:16:03 10.2 C 5.71 g/m*3 10.2 C 0 km/h
183 15-01-2011 12:28:03 10.3 C 5.75 g/m*3 10.3 C 0 km/h
184 15-01-2011 12:40:02 10.2 C 5.71 g/m*3 10.2 C 0 km/h
185 15-01-2011 12:52:01 10.1 C 5.67 g/m*3 10.1 C 0 km/h
186 15-01-2011 13:04:01 10.1 C 5.58 g/m*3 10.1 C 0 km/h
187 15-01-2011 13:16:02 10 C 5.64 g/m*3 10 C 0 km/h
188 15-01-2011 13:28:02 10 C 5.54 g/m*3 10 C 0 km/h
189 15-01-2011 13:40:01 10 C 5.54 g/m*3 10 C 0 km/h
190 15-01-2011 13:52:01 10.1 C 5.58 g/m*3 10.1 C 0 km/h
191 15-01-2011 14:04:01 10.2 C 5.61 g/m*3 10.2 C 0 km/h
192 15-01-2011 14:16:02 10 C 5.54 g/m*3 10 C 0 km/h
193 15-01-2011 14:28:02 10 C 5.54 g/m*3 10 C 0 km/h
194 15-01-2011 14:40:01 10 C 5.54 g/m*3 10 C 0 km/h
195 15-01-2011 14:52:01 10 C 5.45 g/m*3 10 C 0 km/h
196 15-01-2011 15:04:01 9.9 C 5.42 g/m*3 9.9 C 0 km/h
197 15-01-2011 15:16:02 9.8 C 5.57 g/m*3 9.8 C 0 km/h
198 15-01-2011 15:28:02 9.6 C 5.5 g/m*3 9.6 C 0 km/h
199 15-01-2011 15:40:01 9.7 C 5.53 g/m*3 9.7 C 0 km/h
200 15-01-2011 15:52:02 9.1 C 5.59 g/m*3 9.1 C 0 km/h
Sensor: Nr:Datum:Temp:Abs-Feuchte:Windchill:Wind:
Aussen-T/F 201 15-01-2011 16:04:02 8.8 C 5.83 g/m*3 8.8 C 0 km/h
202 15-01-2011 16:16:03 8.7 C 5.71 g/m*3 8.7 C 0 km/h
203 15-01-2011 16:28:03 8.9 C 5.69 g/m*3 8.9 C 0 km/h
204 15-01-2011 16:40:02 8.9 C 5.69 g/m*3 8.9 C 0 km/h
205 15-01-2011 16:52:02 9.2 C 5.63 g/m*3 9.2 C 0 km/h
206 15-01-2011 17:04:01 8.7 C 5.79 g/m*3 8.7 C 0 km/h
207 15-01-2011 17:16:01 9.1 C 5.59 g/m*3 9.1 C 0 km/h
208 15-01-2011 17:28:01 9.2 C 5.54 g/m*3 9.2 C 0 km/h
209 15-01-2011 17:40:02 9 C 5.64 g/m*3 9 C 0 km/h
210 15-01-2011 17:52:03 9.1 C 5.68 g/m*3 9.1 C 0 km/h
211 15-01-2011 18:04:03 9.2 C 5.71 g/m*3 9.2 C 0 km/h
212 15-01-2011 18:16:01 9.1 C 5.68 g/m*3 9.1 C 0 km/h
213 15-01-2011 18:28:01 9 C 5.82 g/m*3 9 C 0 km/h
214 15-01-2011 18:40:02 9 C 5.82 g/m*3 9 C 0 km/h
215 15-01-2011 18:52:02 8.6 C 5.84 g/m*3 8.6 C 0 km/h
216 15-01-2011 19:04:02 9.1 C 5.77 g/m*3 9.1 C 0 km/h
217 15-01-2011 19:16:02 9.3 C 5.66 g/m*3 9.3 C 0 km/h
218 15-01-2011 19:28:02 9.1 C 5.59 g/m*3 9.1 C 0 km/h
219 15-01-2011 19:40:02 9.3 C 5.75 g/m*3 9.3 C 0 km/h
220 15-01-2011 19:52:01 9.1 C 5.68 g/m*3 9.1 C 0 km/h
221 15-01-2011 20:04:01 9.4 C 5.7 g/m*3 9.4 C 0 km/h
222 15-01-2011 20:16:02 9.1 C 5.59 g/m*3 9.1 C 0 km/h
223 15-01-2011 20:28:02 8.6 C 5.67 g/m*3 8.6 C 0 km/h
224 15-01-2011 20:40:01 8.9 C 5.69 g/m*3 8.9 C 0 km/h
225 15-01-2011 20:52:01 8.6 C 5.76 g/m*3 8.6 C 0 km/h
Sensor: Nr:Datum:Temp:Abs-Feuchte:Windchill:Wind:
Aussen-T/F 226 15-01-2011 21:04:01 8.2 C 5.53 g/m*3 8.2 C 0 km/h
227 15-01-2011 21:16:02 8.1 C 5.57 g/m*3 8.1 C 0 km/h
228 15-01-2011 21:28:02 8 C 5.54 g/m*3 8 C 0 km/h
229 15-01-2011 21:40:01 7.8 C 5.71 g/m*3 7.8 C 0 km/h
230 15-01-2011 21:52:01 8.1 C 5.74 g/m*3 8.1 C 0 km/h
231 15-01-2011 22:04:01 8.3 C 5.82 g/m*3 8.3 C 0 km/h
232 15-01-2011 22:16:02 8.5 C 5.98 g/m*3 8.5 C 0 km/h
233 15-01-2011 22:28:02 8.9 C 5.96 g/m*3 8.9 C 0 km/h
234 15-01-2011 22:41:03 8.6 C 5.84 g/m*3 8.6 C 0 km/h
235 15-01-2011 22:53:03 8.7 C 5.88 g/m*3 8.7 C 0 km/h
236 15-01-2011 23:05:03 8.5 C 5.89 g/m*3 8.5 C 0 km/h
237 15-01-2011 23:17:03 8.2 C 5.86 g/m*3 8.2 C 0 km/h
238 15-01-2011 23:29:03 8.7 C 5.88 g/m*3 8.7 C 0 km/h
239 15-01-2011 23:41:03 8.8 C 5.92 g/m*3 8.8 C 0 km/h
240 15-01-2011 23:53:03 8.9 C 5.87 g/m*3 8.9 C 0 km/h
241 16-01-2011 00:05:03 8.7 C 5.97 g/m*3 8.7 C 0 km/h
242 16-01-2011 00:17:03 8.8 C 5.92 g/m*3 8.8 C 0 km/h
243 16-01-2011 00:29:03 9 C 5.82 g/m*3 9 C 0 km/h
244 16-01-2011 00:41:03 9 C 5.73 g/m*3 9 C 0 km/h
245 16-01-2011 00:53:04 9 C 5.73 g/m*3 9 C 0 km/h
246 16-01-2011 01:05:04 8.5 C 5.64 g/m*3 8.5 C 0 km/h
247 16-01-2011 01:17:04 8.6 C 5.76 g/m*3 8.6 C 0 km/h
248 16-01-2011 01:29:04 8 C 5.7 g/m*3 8 C 0 km/h
249 16-01-2011 01:41:04 8 C 5.7 g/m*3 8 C 0 km/h
250 16-01-2011 01:53:04 8.1 C 5.66 g/m*3 8.1 C 0 km/h
Sensor: Nr:Datum:Temp:Abs-Feuchte:Windchill:Wind:
Aussen-T/F 251 16-01-2011 02:05:04 8.1 C 5.66 g/m*3 8.1 C 0 km/h
252 16-01-2011 02:17:04 7.8 C 5.71 g/m*3 7.8 C 0 km/h
253 16-01-2011 02:29:04 7.8 C 5.79 g/m*3 7.8 C 0 km/h
254 16-01-2011 02:41:04 7.8 C 5.88 g/m*3 7.8 C 0 km/h
255 16-01-2011 02:53:04 8.3 C 5.82 g/m*3 8.3 C 0 km/h
256 16-01-2011 03:05:04 8.4 C 5.77 g/m*3 8.4 C 0 km/h
257 16-01-2011 03:17:04 8.3 C 5.65 g/m*3 8.3 C 0 km/h
258 16-01-2011 03:29:04 8.2 C 5.69 g/m*3 8.2 C 0 km/h
259 16-01-2011 03:41:04 7.8 C 5.71 g/m*3 7.8 C 0 km/h
260 16-01-2011 03:53:04 8 C 5.7 g/m*3 8 C 0 km/h
261 16-01-2011 04:05:04 7.9 C 5.75 g/m*3 7.9 C 0 km/h
262 16-01-2011 04:17:04 8.2 C 5.78 g/m*3 8.2 C 0 km/h
263 16-01-2011 04:29:04 8.5 C 5.72 g/m*3 8.5 C 0 km/h
264 16-01-2011 04:41:04 8.4 C 5.77 g/m*3 8.4 C 0 km/h
265 16-01-2011 04:53:05 8.1 C 5.74 g/m*3 8.1 C 0 km/h
266 16-01-2011 05:05:05 7.9 C 5.83 g/m*3 7.9 C 0 km/h
267 16-01-2011 05:17:05 7.3 C 5.85 g/m*3 7.3 C 0 km/h
268 16-01-2011 05:29:05 6.8 C 5.97 g/m*3 6.8 C 0 km/h
269 16-01-2011 05:41:05 7 C 6.12 g/m*3 7 C 0 km/h
270 16-01-2011 05:53:05 6.8 C 6.12 g/m*3 6.8 C 0 km/h
271 16-01-2011 06:05:05 7 C 6.2 g/m*3 7 C 0 km/h
272 16-01-2011 06:17:05 7.1 C 6.16 g/m*3 7.1 C 0 km/h
273 16-01-2011 06:29:05 7.5 C 6.16 g/m*3 7.5 C 0 km/h
274 16-01-2011 06:41:05 7 C 5.89 g/m*3 7 C 0 km/h
275 16-01-2011 06:53:05 6.7 C 6 g/m*3 6.7 C 0 km/h
Sensor: Nr:Datum:Temp:Abs-Feuchte:Windchill:Wind:
Aussen-T/F 276 16-01-2011 07:05:05 7.5 C 6.16 g/m*3 7.5 C 0 km/h
277 16-01-2011 07:17:05 7.8 C 6.12 g/m*3 7.8 C 0 km/h
278 16-01-2011 07:29:05 7.9 C 6.08 g/m*3 7.9 C 0 km/h
279 16-01-2011 07:41:05 7.8 C 6.04 g/m*3 7.8 C 0 km/h
280 16-01-2011 07:53:05 8.4 C 5.94 g/m*3 8.4 C 0 km/h
281 16-01-2011 08:05:05 8.2 C 5.86 g/m*3 8.2 C 0 km/h
282 16-01-2011 08:17:05 8.3 C 5.9 g/m*3 8.3 C 0 km/h
283 16-01-2011 08:29:05 8.3 C 5.82 g/m*3 8.3 C 0 km/h
284 16-01-2011 08:41:05 8.1 C 5.82 g/m*3 8.1 C 0 km/h
285 16-01-2011 08:53:05 8.2 C 5.95 g/m*3 8.2 C 0 km/h
286 16-01-2011 09:05:02 8.3 C 5.98 g/m*3 8.3 C 0 km/h
287 16-01-2011 09:17:02 8 C 5.87 g/m*3 8 C 0 km/h
288 16-01-2011 09:29:02 8 C 5.87 g/m*3 8 C 0 km/h
289 16-01-2011 09:41:02 8 C 5.87 g/m*3 8 C 0 km/h
290 16-01-2011 09:53:01 7.9 C 5.91 g/m*3 7.9 C 0 km/h
291 16-01-2011 10:05:02 7.9 C 5.91 g/m*3 7.9 C 0 km/h
292 16-01-2011 10:17:01 7.9 C 5.91 g/m*3 7.9 C 0 km/h
293 16-01-2011 10:29:01 7.9 C 5.91 g/m*3 7.9 C 0 km/h
294 16-01-2011 10:41:01 8 C 5.95 g/m*3 8 C 0 km/h
295 16-01-2011 10:53:01 8.2 C 5.86 g/m*3 8.2 C 0 km/h
296 16-01-2011 11:05:02 8.1 C 5.91 g/m*3 8.1 C 0 km/h
297 16-01-2011 11:17:01 8.1 C 5.91 g/m*3 8.1 C 0 km/h
298 16-01-2011 11:29:01 8.3 C 5.98 g/m*3 8.3 C 0 km/h
299 16-01-2011 11:41:02 8.6 C 6.1 g/m*3 8.6 C 0 km/h
300 16-01-2011 11:53:01 8.7 C 6.05 g/m*3 8.7 C 0 km/h
Sensor: Nr:Datum:Temp:Abs-Feuchte:Windchill:Wind:
Aussen-T/F 301 16-01-2011 12:05:02 8.6 C 6.1 g/m*3 8.6 C 0 km/h
302 16-01-2011 12:17:01 8.6 C 6.19 g/m*3 8.6 C 0 km/h
303 16-01-2011 12:29:01 8.6 C 6.19 g/m*3 8.6 C 0 km/h
304 16-01-2011 12:41:02 8.7 C 6.14 g/m*3 8.7 C 0 km/h
305 16-01-2011 12:53:01 8.7 C 6.14 g/m*3 8.7 C 0 km/h
306 16-01-2011 13:05:02 8.9 C 6.22 g/m*3 8.9 C 0 km/h
307 16-01-2011 13:17:02 8.9 C 6.22 g/m*3 8.9 C 0 km/h
308 16-01-2011 13:29:02 8.8 C 6.18 g/m*3 8.8 C 0 km/h
309 16-01-2011 13:41:01 8.7 C 6.14 g/m*3 8.7 C 0 km/h
310 16-01-2011 13:53:02 8.8 C 6.18 g/m*3 8.8 C 0 km/h
311 16-01-2011 14:05:01 8.6 C 6.1 g/m*3 8.6 C 0 km/h
312 16-01-2011 14:17:02 7.8 C 6.04 g/m*3 7.8 C 0 km/h
313 16-01-2011 14:29:02 7.5 C 6.24 g/m*3 7.5 C 0 km/h
314 16-01-2011 14:41:01 8.7 C 6.57 g/m*3 8.7 C 0 km/h
315 16-01-2011 14:53:02 9.7 C 6.36 g/m*3 9.7 C 0 km/h
316 16-01-2011 15:05:01 9.9 C 6.26 g/m*3 9.9 C 0 km/h
317 16-01-2011 15:17:02 10 C 6.11 g/m*3 10 C 0 km/h
318 16-01-2011 15:29:02 10 C 6.11 g/m*3 10 C 0 km/h
319 16-01-2011 15:41:01 9.9 C 6.26 g/m*3 9.9 C 0 km/h
320 16-01-2011 15:53:02 9.8 C 6.4 g/m*3 9.8 C 0 km/h
321 16-01-2011 16:05:02 9.3 C 6.38 g/m*3 9.3 C 0 km/h
322 16-01-2011 16:17:02 8.7 C 6.4 g/m*3 8.7 C 0 km/h
323 16-01-2011 16:29:02 8 C 6.28 g/m*3 8 C 0 km/h
324 16-01-2011 16:41:02 7.4 C 6.36 g/m*3 7.4 C 0 km/h
325 16-01-2011 16:53:02 6.8 C 6.27 g/m*3 6.8 C 0 km/h
Sensor: Nr:Datum:Temp:Abs-Feuchte:Windchill:Wind:
Aussen-T/F 326 16-01-2011 17:05:01 6.3 C 6.14 g/m*3 6.3 C 0 km/h
327 16-01-2011 17:17:02 6.2 C 6.18 g/m*3 6.2 C 0 km/h
328 16-01-2011 17:29:02 6 C 6.17 g/m*3 6 C 0 km/h
329 16-01-2011 17:41:02 5.6 C 6.08 g/m*3 5.6 C 0 km/h
330 16-01-2011 17:53:02 5.5 C 6.11 g/m*3 5.5 C 0 km/h
331 16-01-2011 18:05:03 5.1 C 5.95 g/m*3 5.1 C 0 km/h
332 16-01-2011 18:17:02 5 C 5.91 g/m*3 5 C 0 km/h
333 16-01-2011 18:29:02 4.8 C 5.9 g/m*3 4.8 C 0 km/h
334 16-01-2011 18:41:02 4.7 C 5.93 g/m*3 4.7 C 0 km/h
335 16-01-2011 18:53:02 4.6 C 5.89 g/m*3 4.6 C 0 km/h
336 16-01-2011 19:05:01 4.5 C 5.85 g/m*3 4.5 C 0 km/h
337 16-01-2011 19:17:02 4.4 C 5.81 g/m*3 4.4 C 0 km/h
338 16-01-2011 19:29:03 4.4 C 5.81 g/m*3 4.4 C 0 km/h
339 16-01-2011 19:41:01 3.9 C 5.68 g/m*3 3.9 C 0 km/h
340 16-01-2011 19:53:02 3.9 C 5.68 g/m*3 3.9 C 0 km/h
341 16-01-2011 20:05:02 3.4 C 5.5 g/m*3 3.4 C 0 km/h
342 16-01-2011 20:17:02 3.7 C 5.61 g/m*3 3.7 C 0 km/h
343 16-01-2011 20:29:02 3.5 C 5.53 g/m*3 3.5 C 0 km/h
344 16-01-2011 20:41:03 2.9 C 5.37 g/m*3 2.9 C 0 km/h
345 16-01-2011 20:53:02 2.8 C 5.34 g/m*3 2.8 C 0 km/h
346 16-01-2011 21:05:01 2.7 C 5.3 g/m*3 2.7 C 0 km/h
347 16-01-2011 21:17:02 2.2 C 5.13 g/m*3 2.2 C 0 km/h
348 16-01-2011 21:29:02 2.7 C 5.3 g/m*3 2.7 C 0 km/h
349 16-01-2011 21:41:02 2.2 C 5.13 g/m*3 2.2 C 0 km/h
350 16-01-2011 21:53:02 2.2 C 5.13 g/m*3 2.2 C 0 km/h
Sensor: Nr:Datum:Temp:Abs-Feuchte:Windchill:Wind:
Aussen-T/F 351 16-01-2011 22:06:04 1.8 C 5.04 g/m*3 1.8 C 0 km/h
352 16-01-2011 22:18:04 2.8 C 5.4 g/m*3 2.8 C 0 km/h
353 16-01-2011 22:30:04 1.9 C 5.08 g/m*3 1.9 C 0 km/h
354 16-01-2011 22:42:04 2.1 C 5.09 g/m*3 2.1 C 0 km/h
355 16-01-2011 22:54:04 2.2 C 5.18 g/m*3 2.2 C 0 km/h
356 16-01-2011 23:06:04 2.1 C 5.15 g/m*3 2.1 C 0 km/h
357 16-01-2011 23:18:04 1.5 C 4.94 g/m*3 1.5 C 0 km/h
358 16-01-2011 23:30:04 1.5 C 4.94 g/m*3 1.5 C 0 km/h
359 16-01-2011 23:42:04 1.1 C 4.81 g/m*3 1.1 C 0 km/h
360 16-01-2011 23:54:04 0.6 C 4.65 g/m*3 0.6 C 0 km/h

Legende:
   Min
   Max


Maximal/Minimal-Werte vom 14.01.2011 - 16.01.2011

Sensor Min Max Avg
Temp
(Aussen-T/F)
0.6 °C
16-01-2011  23:54:04
12.7 °C
14-01-2011  00:02:02
9.1 °C
Abs-Feuchte
(Aussen-T/F)
4.65 g/m*3
16-01-2011  23:54:04
8.24 g/m*3
14-01-2011  00:02:02
6.23 g/m*3
Windchill
(Aussen-T/F)
0.6 C
16-01-2011  23:54:04
12.7 C
14-01-2011  00:02:02
9.07 C

Die Daten stammen von einer Davis Vantage Pro 2 Wetter-Station und werden unter Linux mit der Software wview2wettercgi und aufbereitet. Alle Angaben erfolgen ohne Gewähr für ihre Vollständigkeit oder Richtigkeit.
Kontakt: Rainer Krienke krienke@uni-koblenz.de . Meine Webseiten an der Uni Koblenz oder privat.
Version: $Revision: 0.78 $